createdAt,value
2023-03-22T00:00:06.783Z,10.00
2023-03-22T00:02:34.082Z,10.35
2023-03-22T00:05:01.553Z,7.95
2023-03-22T00:07:28.793Z,10.48
2023-03-22T00:09:55.828Z,9.52
2023-03-22T00:12:23.032Z,7.78
2023-03-22T00:14:50.580Z,6.82
2023-03-22T00:17:17.578Z,6.30
2023-03-22T00:19:45.084Z,11.55
2023-03-22T00:22:12.069Z,7.80
2023-03-22T00:24:39.160Z,6.03
2023-03-22T00:27:06.473Z,6.80
2023-03-22T00:29:33.742Z,5.80
2023-03-22T00:32:00.786Z,7.22
2023-03-22T00:34:31.763Z,6.97
2023-03-22T00:36:59.175Z,7.13
2023-03-22T00:39:27.148Z,6.60
2023-03-22T00:41:54.164Z,6.38
2023-03-22T00:44:21.601Z,5.30
2023-03-22T00:46:48.661Z,3.47
2023-03-22T00:49:15.830Z,5.25
2023-03-22T00:51:42.767Z,10.52
2023-03-22T00:54:09.846Z,4.18
2023-03-22T00:56:37.958Z,4.28
2023-03-22T00:59:05.806Z,5.88
2023-03-22T01:01:33.412Z,6.80
2023-03-22T01:04:00.712Z,7.15
2023-03-22T01:06:27.793Z,5.95
2023-03-22T01:08:55.326Z,7.95
2023-03-22T01:11:22.523Z,6.22
2023-03-22T01:13:49.946Z,6.07
2023-03-22T01:16:17.986Z,6.22
2023-03-22T01:18:45.467Z,7.10
2023-03-22T01:21:12.642Z,8.57
2023-03-22T01:23:39.639Z,8.68
2023-03-22T01:26:06.923Z,10.88
2023-03-22T01:28:34.378Z,11.05
2023-03-22T01:31:02.829Z,9.20
2023-03-22T01:33:31.306Z,10.50
2023-03-22T01:35:58.294Z,10.50
2023-03-22T01:38:25.300Z,12.57
2023-03-22T01:40:52.654Z,9.63
2023-03-22T01:43:20.138Z,13.60
2023-03-22T01:45:51.814Z,12.57
2023-03-22T01:48:36.760Z,9.55
2023-03-22T01:51:07.493Z,10.10
2023-03-22T01:53:43.181Z,8.55
2023-03-22T01:56:11.160Z,8.07
2023-03-22T01:58:39.404Z,6.60
2023-03-22T02:01:09.863Z,14.35
2023-03-22T02:03:53.595Z,8.88
2023-03-22T02:06:21.386Z,10.48
2023-03-22T02:08:52.694Z,11.38
2023-03-22T02:11:29.139Z,10.93
2023-03-22T02:14:09.286Z,11.93
2023-03-22T02:17:07.280Z,9.00
2023-03-22T02:19:59.079Z,11.70
2023-03-22T02:22:39.081Z,12.35
2023-03-22T02:25:30.370Z,13.98
2023-03-22T02:28:12.653Z,11.68
2023-03-22T02:30:59.209Z,8.70
2023-03-22T02:33:57.443Z,8.15
2023-03-22T02:36:54.873Z,13.07
2023-03-22T02:39:58.313Z,12.68
2023-03-22T02:42:25.726Z,13.35
2023-03-22T02:45:09.895Z,9.88
2023-03-22T02:48:12.046Z,16.58
2023-03-22T02:50:50.632Z,14.27
2023-03-22T02:53:46.731Z,11.45
2023-03-22T02:56:23.738Z,16.50
2023-03-22T02:58:54.123Z,13.27
2023-03-22T03:01:44.499Z,11.13
2023-03-22T03:04:17.810Z,12.48
2023-03-22T03:06:48.798Z,16.83
2023-03-22T03:09:18.934Z,14.18
2023-03-22T03:11:48.443Z,10.05
2023-03-22T03:14:30.487Z,11.30
2023-03-22T03:17:32.681Z,12.68
2023-03-22T03:20:22.527Z,12.63
2023-03-22T03:23:34.903Z,20.42
2023-03-22T03:26:25.337Z,13.45
2023-03-22T03:29:45.430Z,11.82
2023-03-22T03:32:28.693Z,10.38
2023-03-22T03:35:01.554Z,12.65
2023-03-22T03:37:44.019Z,10.68
2023-03-22T03:40:20.340Z,14.93
2023-03-22T03:42:54.312Z,11.45
2023-03-22T03:45:22.313Z,11.65
2023-03-22T03:47:57.102Z,14.02
2023-03-22T03:50:26.247Z,13.93
2023-03-22T03:52:55.021Z,13.75
2023-03-22T03:55:24.198Z,10.50
2023-03-22T03:57:51.281Z,8.15
2023-03-22T04:00:19.189Z,10.00
2023-03-22T04:02:46.453Z,10.02
2023-03-22T04:05:14.679Z,12.20
2023-03-22T04:07:41.961Z,16.45
2023-03-22T04:10:09.584Z,12.88
2023-03-22T04:12:36.558Z,8.23
2023-03-22T04:15:03.681Z,12.90
2023-03-22T04:17:32.372Z,10.07
2023-03-22T04:19:59.474Z,9.18
2023-03-22T04:22:26.924Z,9.60
2023-03-22T04:24:53.967Z,11.73
2023-03-22T04:27:22.905Z,6.63
2023-03-22T04:29:51.210Z,12.13
2023-03-22T04:32:19.554Z,13.43
2023-03-22T04:34:46.886Z,6.47
2023-03-22T04:37:14.748Z,8.50
2023-03-22T04:39:42.612Z,4.18
2023-03-22T04:42:09.856Z,11.65
2023-03-22T04:44:36.942Z,4.28
2023-03-22T04:47:04.551Z,4.57
2023-03-22T04:49:31.977Z,9.15
2023-03-22T04:51:59.217Z,6.07
2023-03-22T04:54:26.232Z,4.97
2023-03-22T04:56:53.214Z,3.45
2023-03-22T04:59:20.684Z,2.45
2023-03-22T05:01:48.971Z,2.75
2023-03-22T05:04:19.668Z,2.83
2023-03-22T05:06:47.160Z,1.60
2023-03-22T05:09:14.512Z,6.07
2023-03-22T05:11:42.295Z,2.55
2023-03-22T05:14:10.251Z,1.35
2023-03-22T05:16:40.812Z,0.63
2023-03-22T05:19:14.291Z,2.05
2023-03-22T05:21:44.114Z,2.95
2023-03-22T05:24:11.744Z,1.90
2023-03-22T05:26:42.317Z,0.63
2023-03-22T05:29:11.118Z,2.75
2023-03-22T05:31:38.245Z,1.65
2023-03-22T05:34:05.364Z,0.93
2023-03-22T05:36:32.589Z,0.30
2023-03-22T05:38:59.975Z,0.35
2023-03-22T05:41:27.102Z,2.03
2023-03-22T05:43:54.209Z,0.40
2023-03-22T05:46:21.315Z,0.55
2023-03-22T05:48:48.366Z,1.48
2023-03-22T05:51:17.841Z,0.30
2023-03-22T05:53:46.222Z,0.40
2023-03-22T05:56:14.117Z,0.82
2023-03-22T05:58:42.390Z,0.75
2023-03-22T06:01:12.415Z,0.73
2023-03-22T06:03:40.221Z,0.88
2023-03-22T06:06:10.698Z,0.45
2023-03-22T06:08:39.648Z,0.98
2023-03-22T06:11:07.824Z,2.13
2023-03-22T06:13:35.252Z,1.00
2023-03-22T06:16:04.640Z,0.93
2023-03-22T06:18:32.219Z,0.60
2023-03-22T06:20:59.823Z,1.85
2023-03-22T06:23:27.094Z,0.30
2023-03-22T06:25:54.597Z,0.28
2023-03-22T06:28:21.577Z,0.93
2023-03-22T06:30:48.527Z,0.98
2023-03-22T06:33:15.740Z,1.15
2023-03-22T06:35:42.717Z,1.30
2023-03-22T06:38:09.987Z,1.17
2023-03-22T06:40:37.322Z,0.77
2023-03-22T06:43:07.114Z,1.75
2023-03-22T06:45:36.111Z,2.13
2023-03-22T06:48:03.440Z,3.28
2023-03-22T06:50:31.064Z,2.80
2023-03-22T06:52:58.306Z,5.15
2023-03-22T06:55:25.895Z,5.20
2023-03-22T06:57:53.388Z,4.10
2023-03-22T07:00:20.792Z,4.35
2023-03-22T07:02:47.762Z,6.55
2023-03-22T07:05:14.991Z,8.82
2023-03-22T07:07:42.151Z,9.93
2023-03-22T07:10:09.868Z,11.02
2023-03-22T07:12:37.212Z,6.45
2023-03-22T07:15:04.796Z,8.73
2023-03-22T07:17:31.992Z,7.63
2023-03-22T07:19:59.062Z,10.23
2023-03-22T07:22:27.412Z,8.18
2023-03-22T07:24:58.237Z,8.38
2023-03-22T07:27:26.448Z,6.13
2023-03-22T07:29:53.492Z,6.13
2023-03-22T07:32:20.784Z,8.20
2023-03-22T07:34:47.998Z,13.77
2023-03-22T07:37:15.279Z,8.77
2023-03-22T07:39:42.532Z,5.55
2023-03-22T07:42:09.656Z,7.32
2023-03-22T07:44:36.706Z,6.88
2023-03-22T07:47:03.818Z,6.47
2023-03-22T07:49:31.411Z,4.78
2023-03-22T07:51:58.554Z,6.38
2023-03-22T07:54:33.282Z,4.57
2023-03-22T07:57:02.416Z,7.53
2023-03-22T07:59:29.588Z,6.43
2023-03-22T08:01:56.595Z,5.13
2023-03-22T08:04:23.965Z,3.72
2023-03-22T08:06:51.508Z,3.55
2023-03-22T08:09:19.053Z,2.60
2023-03-22T08:11:46.026Z,3.70
2023-03-22T08:14:13.066Z,4.13
2023-03-22T08:16:42.055Z,5.57
2023-03-22T08:19:09.038Z,6.40
2023-03-22T08:21:36.554Z,8.43
2023-03-22T08:24:04.463Z,3.72
2023-03-22T08:26:31.570Z,5.53
2023-03-22T08:29:00.104Z,3.38
2023-03-22T08:31:27.295Z,4.50
2023-03-22T08:33:54.415Z,4.05
2023-03-22T08:36:25.155Z,7.05
2023-03-22T08:38:52.439Z,3.78
2023-03-22T08:41:19.435Z,6.22
2023-03-22T08:43:46.457Z,7.35
2023-03-22T08:46:13.589Z,6.70
2023-03-22T08:48:41.812Z,6.35
2023-03-22T08:51:09.208Z,3.92
2023-03-22T08:53:36.119Z,5.30
2023-03-22T08:56:03.951Z,6.65
2023-03-22T08:58:31.265Z,4.50
2023-03-22T09:00:58.719Z,7.13
2023-03-22T09:03:25.969Z,4.47
2023-03-22T09:05:53.136Z,5.78
2023-03-22T09:08:20.654Z,7.47
2023-03-22T09:10:52.020Z,7.47
2023-03-22T09:13:20.794Z,8.07
2023-03-22T09:15:48.311Z,3.90
2023-03-22T09:18:16.507Z,4.97
2023-03-22T09:20:45.460Z,6.38
2023-03-22T09:23:15.593Z,5.00
2023-03-22T09:25:47.216Z,5.80
2023-03-22T09:28:14.582Z,7.78
2023-03-22T09:30:41.976Z,7.03
2023-03-22T09:33:09.647Z,7.45
2023-03-22T09:35:42.198Z,11.32
2023-03-22T09:38:10.547Z,6.50
2023-03-22T09:40:43.978Z,6.38
2023-03-22T09:43:14.415Z,5.05
2023-03-22T09:45:48.621Z,5.22
2023-03-22T09:48:27.989Z,8.38
2023-03-22T09:50:55.809Z,4.70
2023-03-22T09:53:26.707Z,3.95
2023-03-22T09:56:23.303Z,3.78
2023-03-22T09:58:55.332Z,3.90
2023-03-22T10:01:52.216Z,3.70
2023-03-22T10:04:31.928Z,3.35
2023-03-22T10:07:09.367Z,4.20
2023-03-22T10:10:12.619Z,3.83
2023-03-22T10:13:13.951Z,3.10
2023-03-22T10:15:47.070Z,4.13
2023-03-22T10:18:26.353Z,6.40
2023-03-22T10:21:06.690Z,4.28
2023-03-22T10:23:46.129Z,3.65
2023-03-22T10:26:21.739Z,4.75
2023-03-22T10:29:04.071Z,9.05
2023-03-22T10:31:34.104Z,5.13
2023-03-22T10:34:13.512Z,2.17
2023-03-22T10:36:41.725Z,4.88
2023-03-22T10:39:28.309Z,3.20
2023-03-22T10:41:58.165Z,2.47
2023-03-22T10:44:27.752Z,2.92
2023-03-22T10:46:59.852Z,3.38
2023-03-22T10:49:35.699Z,3.08
2023-03-22T10:52:28.073Z,3.13
2023-03-22T10:55:01.251Z,4.22
2023-03-22T10:57:30.703Z,3.10
2023-03-22T10:59:58.066Z,2.38
2023-03-22T11:02:31.534Z,2.10
2023-03-22T11:05:03.676Z,2.17
2023-03-22T11:07:34.842Z,1.88
2023-03-22T11:10:10.717Z,1.85
2023-03-22T11:12:53.131Z,2.40
2023-03-22T11:15:31.673Z,2.10
2023-03-22T11:18:05.830Z,4.80
2023-03-22T11:20:34.486Z,2.33
2023-03-22T11:23:05.268Z,3.17
2023-03-22T11:25:36.432Z,2.28
2023-03-22T11:28:11.622Z,1.45
2023-03-22T11:30:38.960Z,1.33
2023-03-22T11:33:09.143Z,2.35
2023-03-22T11:35:38.686Z,3.63
2023-03-22T11:38:06.468Z,0.70
2023-03-22T11:40:37.021Z,1.48
2023-03-22T11:43:27.869Z,2.83
2023-03-22T11:45:58.321Z,3.72
2023-03-22T11:48:29.425Z,3.03
2023-03-22T11:51:10.733Z,4.65
2023-03-22T11:53:44.786Z,2.65
2023-03-22T11:56:16.175Z,4.22
2023-03-22T11:58:55.398Z,1.00
2023-03-22T12:01:34.730Z,2.15
2023-03-22T12:04:05.867Z,2.97
2023-03-22T12:06:38.408Z,2.83
2023-03-22T12:09:25.845Z,2.53
2023-03-22T12:11:59.300Z,1.70
2023-03-22T12:14:51.885Z,3.75
2023-03-22T12:17:47.783Z,4.18
2023-03-22T12:20:39.435Z,3.58
2023-03-22T12:23:22.263Z,4.35
2023-03-22T12:26:21.690Z,4.13
2023-03-22T12:29:17.124Z,2.67
2023-03-22T12:31:57.859Z,3.00
2023-03-22T12:34:36.150Z,6.32
2023-03-22T12:37:07.732Z,1.67
2023-03-22T12:39:41.438Z,3.10
2023-03-22T12:42:50.755Z,4.40
2023-03-22T12:45:26.522Z,2.25
2023-03-22T12:48:05.804Z,2.15
2023-03-22T12:51:02.153Z,1.35
2023-03-22T12:53:43.341Z,3.10
2023-03-22T12:56:14.600Z,1.83
2023-03-22T12:58:45.291Z,3.53
2023-03-22T13:01:19.721Z,4.20
2023-03-22T13:03:52.439Z,3.63
2023-03-22T13:06:31.219Z,1.77
2023-03-22T13:09:09.908Z,2.03
2023-03-22T13:11:37.114Z,3.28
2023-03-22T13:14:04.130Z,3.53
2023-03-22T13:17:07.638Z,2.17
2023-03-22T13:19:37.758Z,0.80
2023-03-22T13:22:17.374Z,0.95
2023-03-22T13:25:08.837Z,0.95
2023-03-22T13:27:45.527Z,2.08
2023-03-22T13:30:20.477Z,1.95
2023-03-22T13:33:03.517Z,3.45
2023-03-22T13:35:43.632Z,3.85
2023-03-22T13:38:16.484Z,5.70
2023-03-22T13:41:05.871Z,4.68
2023-03-22T13:43:50.554Z,3.80
2023-03-22T13:46:20.741Z,2.72
2023-03-22T13:48:48.280Z,5.05
2023-03-22T13:51:25.843Z,3.22
2023-03-22T13:54:15.002Z,5.15
2023-03-22T13:56:45.062Z,4.22
2023-03-22T13:59:30.085Z,3.53
2023-03-22T14:02:16.438Z,5.05
2023-03-22T14:04:50.504Z,3.75
2023-03-22T14:07:33.606Z,2.17
2023-03-22T14:10:03.159Z,1.17
2023-03-22T14:12:54.338Z,1.67
2023-03-22T14:15:27.434Z,3.30
2023-03-22T14:18:15.678Z,1.77
2023-03-22T14:20:43.976Z,3.90
